< < Back
Terminal Aerodrome Forecast


Current Version              Previous Versions:   1  2  3  4  5  6  7  8  9  

Terminal Aerodrome Forecast

113
FTUS44 KBMX 242300
TAFMGM
TAF
KMGM 242325Z 2500/2524 00000KT P6SM SKC=



Latest METAR

509
SAUS80 KWBC 251000 RRC
MTRMGM
METAR KMGM 250953Z AUTO 00000KT 10SM CLR 08/07 A3007 RMK AO2 SLP180
T00830067


USA.gov is the U.S. government's official web portal to all federal, state and local government web resources and services.